createdAt,value
2023-05-06T00:00:49.141Z,12.70
2023-05-06T00:03:17.406Z,12.60
2023-05-06T00:05:46.128Z,12.70
2023-05-06T00:08:14.263Z,12.80
2023-05-06T00:10:42.494Z,12.80
2023-05-06T00:13:11.138Z,12.80
2023-05-06T00:15:40.894Z,12.80
2023-05-06T00:18:08.947Z,12.80
2023-05-06T00:20:36.890Z,12.90
2023-05-06T00:23:07.613Z,12.80
2023-05-06T00:25:36.100Z,12.80
2023-05-06T00:28:04.866Z,12.70
2023-05-06T00:30:33.709Z,12.80
2023-05-06T00:33:03.457Z,12.80
2023-05-06T00:35:31.406Z,12.80
2023-05-06T00:38:07.758Z,12.80
2023-05-06T00:40:35.664Z,12.70
2023-05-06T00:43:07.698Z,12.70
2023-05-06T00:45:36.782Z,12.70
2023-05-06T00:48:11.170Z,12.60
2023-05-06T00:50:43.914Z,12.50
2023-05-06T00:53:12.446Z,12.50
2023-05-06T00:55:41.696Z,12.40
2023-05-06T00:58:10.514Z,12.30
2023-05-06T01:00:39.494Z,12.40
2023-05-06T01:03:09.956Z,12.40
2023-05-06T01:06:04.351Z,12.30
2023-05-06T01:08:47.138Z,12.40
2023-05-06T01:11:19.810Z,12.30
2023-05-06T01:14:00.824Z,12.20
2023-05-06T01:16:32.059Z,12.10
2023-05-06T01:19:02.424Z,12.00
2023-05-06T01:21:34.902Z,12.10
2023-05-06T01:24:04.331Z,12.20
2023-05-06T01:26:32.746Z,12.00
2023-05-06T01:29:02.078Z,11.90
2023-05-06T01:31:38.869Z,12.00
2023-05-06T01:34:16.187Z,11.90
2023-05-06T01:36:57.909Z,11.80
2023-05-06T01:39:31.265Z,11.80
2023-05-06T01:42:02.483Z,11.90
2023-05-06T01:44:35.036Z,11.80
2023-05-06T01:47:03.411Z,11.80
2023-05-06T01:49:31.469Z,11.80
2023-05-06T01:51:59.387Z,11.80
2023-05-06T01:54:28.758Z,11.80
2023-05-06T01:56:56.658Z,11.70
2023-05-06T01:59:24.683Z,11.80
2023-05-06T02:01:52.756Z,11.90
2023-05-06T02:04:20.657Z,11.90
2023-05-06T02:06:48.751Z,11.90
2023-05-06T02:09:16.643Z,11.90
2023-05-06T02:11:46.134Z,11.80
2023-05-06T02:14:14.225Z,11.90
2023-05-06T02:16:42.237Z,11.90
2023-05-06T02:19:10.165Z,11.80
2023-05-06T02:21:38.449Z,11.90
2023-05-06T02:24:07.002Z,11.80
2023-05-06T02:26:35.019Z,11.80
2023-05-06T02:29:04.281Z,11.90
2023-05-06T02:31:32.224Z,12.00
2023-05-06T02:34:00.069Z,12.00
2023-05-06T02:36:28.974Z,11.80
2023-05-06T02:38:56.778Z,11.90
2023-05-06T02:41:24.732Z,11.90
2023-05-06T02:43:52.637Z,11.90
2023-05-06T02:46:22.560Z,11.80
2023-05-06T02:48:50.826Z,11.80
2023-05-06T02:51:18.768Z,11.90
2023-05-06T02:53:46.676Z,11.80
2023-05-06T02:56:14.461Z,11.80
2023-05-06T02:58:42.556Z,11.90
2023-05-06T03:01:10.591Z,11.90
2023-05-06T03:03:40.109Z,11.90
2023-05-06T03:06:08.176Z,11.90
2023-05-06T03:08:36.107Z,11.90
2023-05-06T03:11:04.320Z,11.90
2023-05-06T03:13:33.181Z,12.00
2023-05-06T03:16:01.229Z,12.00
2023-05-06T03:18:29.167Z,12.00
2023-05-06T03:20:58.444Z,12.10
2023-05-06T03:23:26.352Z,12.10
2023-05-06T03:25:54.335Z,12.10
2023-05-06T03:28:22.249Z,12.00
2023-05-06T03:31:19.862Z,12.00
2023-05-06T03:33:50.642Z,12.00
2023-05-06T03:36:20.120Z,12.00
2023-05-06T03:38:48.576Z,11.90
2023-05-06T03:41:18.617Z,11.80
2023-05-06T03:43:46.685Z,11.80
2023-05-06T03:46:14.583Z,11.90
2023-05-06T03:48:42.577Z,11.90
2023-05-06T03:51:10.575Z,12.00
2023-05-06T03:53:40.049Z,11.90
2023-05-06T03:56:08.966Z,11.90
2023-05-06T03:58:37.234Z,11.80
2023-05-06T04:01:05.202Z,11.80
2023-05-06T04:03:33.267Z,11.80
2023-05-06T04:06:01.251Z,11.70
2023-05-06T04:08:29.140Z,11.60
2023-05-06T04:10:58.912Z,11.70
2023-05-06T04:13:35.606Z,11.60
2023-05-06T04:16:04.063Z,11.60
2023-05-06T04:18:32.747Z,11.60
2023-05-06T04:21:00.920Z,11.50
2023-05-06T04:23:29.164Z,11.50
2023-05-06T04:25:59.464Z,11.50
2023-05-06T04:28:27.754Z,11.50
2023-05-06T04:30:56.512Z,11.40
2023-05-06T04:33:25.536Z,11.40
2023-05-06T04:35:54.733Z,11.50
2023-05-06T04:38:25.674Z,11.60
2023-05-06T04:40:53.765Z,11.60
2023-05-06T04:43:23.069Z,11.50
2023-05-06T04:45:51.518Z,11.60
2023-05-06T04:48:19.592Z,11.80
2023-05-06T04:50:47.792Z,11.80
2023-05-06T04:53:16.501Z,11.80
2023-05-06T04:55:45.910Z,12.00
2023-05-06T04:58:14.629Z,12.00
2023-05-06T05:00:45.054Z,12.00
2023-05-06T05:03:13.031Z,12.10
2023-05-06T05:05:41.181Z,12.20
2023-05-06T05:08:10.414Z,12.30
2023-05-06T05:10:38.218Z,12.30
2023-05-06T05:13:06.178Z,12.40
2023-05-06T05:15:33.997Z,12.40
2023-05-06T05:18:03.462Z,12.40
2023-05-06T05:20:31.424Z,12.60
2023-05-06T05:22:59.676Z,12.80
2023-05-06T05:25:27.950Z,12.90
2023-05-06T05:27:55.985Z,13.00
2023-05-06T05:30:24.008Z,13.00
2023-05-06T05:32:52.006Z,13.10
2023-05-06T05:35:21.483Z,13.00
2023-05-06T05:37:51.039Z,13.00
2023-05-06T05:40:19.308Z,13.00
2023-05-06T05:42:47.127Z,13.00
2023-05-06T05:45:15.010Z,12.80
2023-05-06T05:47:42.993Z,12.90
2023-05-06T05:50:18.061Z,12.90
2023-05-06T05:52:47.296Z,12.90
2023-05-06T05:55:15.224Z,13.00
2023-05-06T05:57:43.077Z,13.00
2023-05-06T06:00:13.463Z,13.10
2023-05-06T06:02:42.064Z,13.00
2023-05-06T06:05:10.364Z,13.00
2023-05-06T06:07:38.544Z,13.00
2023-05-06T06:10:09.116Z,12.90
2023-05-06T06:12:37.351Z,13.10
2023-05-06T06:15:05.796Z,13.10
2023-05-06T06:17:33.722Z,13.10
2023-05-06T06:20:01.805Z,13.20
2023-05-06T06:22:29.820Z,13.30
2023-05-06T06:24:57.675Z,13.30
2023-05-06T06:27:27.214Z,13.40
2023-05-06T06:29:55.107Z,13.50
2023-05-06T06:32:23.083Z,13.50
2023-05-06T06:34:51.376Z,13.60
2023-05-06T06:37:19.230Z,13.60
2023-05-06T06:39:47.452Z,13.60
2023-05-06T06:42:15.321Z,13.60
2023-05-06T06:44:44.453Z,13.60
2023-05-06T06:47:12.216Z,13.60
2023-05-06T06:49:40.374Z,13.70
2023-05-06T06:52:08.161Z,13.70
2023-05-06T06:54:38.531Z,13.80
2023-05-06T06:57:07.490Z,13.90
2023-05-06T06:59:35.287Z,13.80
2023-05-06T07:02:04.641Z,14.00
2023-05-06T07:04:32.465Z,14.10
2023-05-06T07:07:00.460Z,14.20
2023-05-06T07:09:28.275Z,14.30
2023-05-06T07:11:56.499Z,14.30
2023-05-06T07:14:25.681Z,14.40
2023-05-06T07:16:53.567Z,14.40
2023-05-06T07:19:22.745Z,14.50
2023-05-06T07:21:50.630Z,14.60
2023-05-06T07:24:18.627Z,14.70
2023-05-06T07:26:46.480Z,14.80
2023-05-06T07:29:14.266Z,14.90
2023-05-06T07:31:42.193Z,14.90
2023-05-06T07:34:10.417Z,15.10
2023-05-06T07:36:43.010Z,15.20
2023-05-06T07:39:11.296Z,15.40
2023-05-06T07:41:39.320Z,15.50
2023-05-06T07:44:07.248Z,15.60
2023-05-06T07:46:36.163Z,15.80
2023-05-06T07:49:04.080Z,16.00
2023-05-06T07:51:31.811Z,15.90
2023-05-06T07:54:01.124Z,15.90
2023-05-06T07:56:28.928Z,15.90
2023-05-06T07:58:56.772Z,15.90
2023-05-06T08:01:25.317Z,16.10
2023-05-06T08:03:53.177Z,16.20
2023-05-06T08:06:21.081Z,16.20
2023-05-06T08:08:48.905Z,16.10
2023-05-06T08:11:19.441Z,15.90
2023-05-06T08:13:47.736Z,16.10
2023-05-06T08:16:15.747Z,16.10
2023-05-06T08:18:43.589Z,16.20
2023-05-06T08:21:11.461Z,16.20
2023-05-06T08:23:39.416Z,16.20
2023-05-06T08:26:07.325Z,16.30
2023-05-06T08:28:36.749Z,16.40
2023-05-06T08:31:04.636Z,16.50
2023-05-06T08:33:32.668Z,16.40
2023-05-06T08:36:00.655Z,16.50
2023-05-06T08:38:28.493Z,16.50
2023-05-06T08:41:00.391Z,16.70
2023-05-06T08:43:32.089Z,16.80
2023-05-06T08:46:01.462Z,17.00
2023-05-06T08:48:29.878Z,17.10
2023-05-06T08:51:01.306Z,17.20
2023-05-06T08:53:30.324Z,17.20
2023-05-06T08:56:03.968Z,17.20
2023-05-06T08:58:33.859Z,17.30
2023-05-06T09:01:04.523Z,17.40
2023-05-06T09:03:32.715Z,17.70
2023-05-06T09:06:00.784Z,18.10
2023-05-06T09:08:28.647Z,18.20
2023-05-06T09:10:56.717Z,18.20
2023-05-06T09:13:24.556Z,17.70
2023-05-06T09:15:55.579Z,17.50
2023-05-06T09:18:25.062Z,17.60
2023-05-06T09:20:52.961Z,17.40
2023-05-06T09:23:23.624Z,17.50
2023-05-06T09:25:54.058Z,17.50
2023-05-06T09:28:21.985Z,17.30
2023-05-06T09:30:51.911Z,17.40
2023-05-06T09:33:19.911Z,17.30
2023-05-06T09:35:49.883Z,17.30
2023-05-06T09:38:17.699Z,17.40
2023-05-06T09:40:45.469Z,17.30
2023-05-06T09:43:15.517Z,17.30
2023-05-06T09:45:44.940Z,17.10
2023-05-06T09:48:12.779Z,17.10
2023-05-06T09:50:41.168Z,17.20
2023-05-06T09:53:13.134Z,17.20
2023-05-06T09:55:42.178Z,17.40
2023-05-06T09:58:11.282Z,17.70
2023-05-06T10:00:39.197Z,17.50
2023-05-06T10:03:07.652Z,17.40
2023-05-06T10:05:38.175Z,17.60
2023-05-06T10:08:07.745Z,17.90
2023-05-06T10:10:41.855Z,18.00
2023-05-06T10:13:09.952Z,18.00
2023-05-06T10:15:40.826Z,18.00
2023-05-06T10:18:10.340Z,18.10
2023-05-06T10:20:41.345Z,18.00
2023-05-06T10:23:14.405Z,18.10
2023-05-06T10:25:45.719Z,17.80
2023-05-06T10:28:21.072Z,17.90
2023-05-06T10:31:00.038Z,18.00
2023-05-06T10:33:29.370Z,18.10
2023-05-06T10:36:09.908Z,18.20
2023-05-06T10:38:42.401Z,18.40
2023-05-06T10:41:12.596Z,18.40
2023-05-06T10:43:42.261Z,18.40
2023-05-06T10:46:11.696Z,18.70
2023-05-06T10:48:40.791Z,19.00
2023-05-06T10:51:25.758Z,19.00
2023-05-06T10:53:59.038Z,19.20
2023-05-06T10:56:28.262Z,19.10
2023-05-06T10:58:56.558Z,18.80
2023-05-06T11:01:27.620Z,18.80
2023-05-06T11:03:55.896Z,19.10
2023-05-06T11:06:34.815Z,19.30
2023-05-06T11:09:04.119Z,19.50
2023-05-06T11:12:00.371Z,19.70
2023-05-06T11:14:30.474Z,19.60
2023-05-06T11:16:59.651Z,19.60
2023-05-06T11:19:30.565Z,19.70
2023-05-06T11:22:00.147Z,19.90
2023-05-06T11:24:29.312Z,19.70
2023-05-06T11:26:59.624Z,19.40
2023-05-06T11:29:28.059Z,19.40
2023-05-06T11:31:56.160Z,19.10
2023-05-06T11:34:26.688Z,18.80
2023-05-06T11:37:02.420Z,18.50
2023-05-06T11:39:36.551Z,18.30
2023-05-06T11:42:09.624Z,18.30
2023-05-06T11:44:39.378Z,18.60
2023-05-06T11:47:09.354Z,18.80
2023-05-06T11:49:38.604Z,18.90
2023-05-06T11:52:07.251Z,19.40
2023-05-06T11:54:36.268Z,19.80
2023-05-06T11:57:04.445Z,19.90
2023-05-06T11:59:35.550Z,19.90
2023-05-06T12:02:05.601Z,19.40
2023-05-06T12:04:42.124Z,19.20
2023-05-06T12:07:11.247Z,19.50
2023-05-06T12:09:42.442Z,19.50
2023-05-06T12:12:11.372Z,19.70
2023-05-06T12:14:41.568Z,19.70
2023-05-06T12:17:09.592Z,19.90
2023-05-06T12:19:37.564Z,20.00
2023-05-06T12:22:19.220Z,20.20
2023-05-06T12:24:47.243Z,20.40
2023-05-06T12:27:15.388Z,19.80
2023-05-06T12:29:54.086Z,19.40
2023-05-06T12:32:22.064Z,19.40
2023-05-06T12:34:49.910Z,19.40
2023-05-06T12:37:26.299Z,19.60
2023-05-06T12:39:56.352Z,19.90
2023-05-06T12:42:26.284Z,20.10
2023-05-06T12:44:55.670Z,20.10
2023-05-06T12:47:25.027Z,20.00
2023-05-06T12:49:54.234Z,20.10
2023-05-06T12:52:23.987Z,19.90
2023-05-06T12:54:52.521Z,19.80
2023-05-06T12:57:21.072Z,20.20
2023-05-06T12:59:50.156Z,20.70
2023-05-06T13:02:19.464Z,20.80
2023-05-06T13:04:47.351Z,20.50
2023-05-06T13:07:15.448Z,20.50
2023-05-06T13:09:44.331Z,20.60
2023-05-06T13:12:12.200Z,20.30
2023-05-06T13:14:40.427Z,20.00
2023-05-06T13:17:08.648Z,20.20
2023-05-06T13:19:38.057Z,20.50
2023-05-06T13:22:05.930Z,20.40
2023-05-06T13:24:33.821Z,20.20
2023-05-06T13:27:02.074Z,20.20
2023-05-06T13:29:30.428Z,20.30
2023-05-06T13:31:58.375Z,20.30
2023-05-06T13:34:26.403Z,20.60
2023-05-06T13:36:56.684Z,20.60
2023-05-06T13:39:25.235Z,20.70
2023-05-06T13:41:54.010Z,20.60
2023-05-06T13:44:24.310Z,20.40
2023-05-06T13:46:52.368Z,20.10
2023-05-06T13:49:20.272Z,20.20
2023-05-06T13:51:48.104Z,20.70
2023-05-06T13:54:17.336Z,20.90
2023-05-06T13:56:45.112Z,20.90
2023-05-06T13:59:13.887Z,20.90
2023-05-06T14:01:42.595Z,20.90
2023-05-06T14:04:10.509Z,20.60
2023-05-06T14:06:38.714Z,20.30
2023-05-06T14:09:06.528Z,20.40
2023-05-06T14:11:35.713Z,20.40
2023-05-06T14:14:03.591Z,20.50
2023-05-06T14:16:31.481Z,20.50
2023-05-06T14:19:00.426Z,20.40
2023-05-06T14:21:28.313Z,20.40
2023-05-06T14:23:56.659Z,20.10
2023-05-06T14:26:24.673Z,20.00
2023-05-06T14:28:53.781Z,20.10
2023-05-06T14:31:21.796Z,20.10
2023-05-06T14:33:50.006Z,20.20
2023-05-06T14:36:19.666Z,20.20
2023-05-06T14:38:47.468Z,20.10
2023-05-06T14:41:15.352Z,20.10
2023-05-06T14:43:43.196Z,20.20
2023-05-06T14:46:14.356Z,20.50
2023-05-06T14:48:43.180Z,20.60
2023-05-06T14:51:10.996Z,20.80
2023-05-06T14:53:38.914Z,20.80
2023-05-06T14:56:08.908Z,20.80
2023-05-06T14:58:36.925Z,20.50
2023-05-06T15:01:04.743Z,20.60
2023-05-06T15:03:33.947Z,20.50
2023-05-06T15:06:01.829Z,20.60
2023-05-06T15:08:29.715Z,20.70
2023-05-06T15:10:57.814Z,20.60
2023-05-06T15:13:25.777Z,20.50
2023-05-06T15:15:53.656Z,20.50
2023-05-06T15:18:21.530Z,20.40
2023-05-06T15:20:50.811Z,20.30
2023-05-06T15:23:20.345Z,20.10
2023-05-06T15:25:48.185Z,20.10
2023-05-06T15:28:15.966Z,19.80
2023-05-06T15:30:43.719Z,19.80
2023-05-06T15:33:11.843Z,19.80
2023-05-06T15:35:39.621Z,19.60
2023-05-06T15:38:08.713Z,19.40
2023-05-06T15:40:36.586Z,19.30
2023-05-06T15:43:06.027Z,19.50
2023-05-06T15:45:34.861Z,19.40
2023-05-06T15:48:02.697Z,19.50
2023-05-06T15:50:33.786Z,19.50
2023-05-06T15:53:02.618Z,19.60
2023-05-06T15:55:35.116Z,19.70
2023-05-06T15:58:11.560Z,19.50
2023-05-06T16:00:39.397Z,19.60
2023-05-06T16:03:09.809Z,19.50
2023-05-06T16:05:39.596Z,19.70
2023-05-06T16:08:07.531Z,19.90
2023-05-06T16:10:36.634Z,20.00
2023-05-06T16:13:04.645Z,19.90
2023-05-06T16:15:32.464Z,19.80
2023-05-06T16:18:00.268Z,19.80
2023-05-06T16:20:29.536Z,19.90
2023-05-06T16:22:57.310Z,19.60
2023-05-06T16:25:25.259Z,19.70
2023-05-06T16:27:54.413Z,19.70
2023-05-06T16:30:22.237Z,19.80
2023-05-06T16:32:50.391Z,19.90
2023-05-06T16:35:19.503Z,20.00
2023-05-06T16:37:47.316Z,20.00
2023-05-06T16:40:20.713Z,20.00
2023-05-06T16:42:48.860Z,20.10
2023-05-06T16:45:18.345Z,20.20
2023-05-06T16:47:47.163Z,20.10
2023-05-06T16:50:15.248Z,20.20
2023-05-06T16:52:43.032Z,20.20
2023-05-06T16:55:11.325Z,20.30
2023-05-06T16:57:39.103Z,20.10
2023-05-06T17:00:11.844Z,20.00
2023-05-06T17:02:41.730Z,20.00
2023-05-06T17:05:09.830Z,20.00
2023-05-06T17:07:37.582Z,19.80
2023-05-06T17:10:05.901Z,19.70
2023-05-06T17:12:33.802Z,19.60
2023-05-06T17:15:01.962Z,19.50
2023-05-06T17:17:29.891Z,19.40
2023-05-06T17:19:59.470Z,19.20
2023-05-06T17:22:27.466Z,19.30
2023-05-06T17:24:55.287Z,19.10
2023-05-06T17:27:23.105Z,18.90
2023-05-06T17:29:50.922Z,18.90
2023-05-06T17:32:19.586Z,18.90
2023-05-06T17:34:47.552Z,18.80
2023-05-06T17:37:16.739Z,18.70
2023-05-06T17:39:46.525Z,18.60
2023-05-06T17:42:14.435Z,18.50
2023-05-06T17:44:42.833Z,18.40
2023-05-06T17:47:11.066Z,18.40
2023-05-06T17:49:38.886Z,18.30
2023-05-06T17:52:06.812Z,18.30
2023-05-06T17:54:36.459Z,18.20
2023-05-06T17:57:04.458Z,18.10
2023-05-06T17:59:32.549Z,18.00
2023-05-06T18:02:01.083Z,17.90
2023-05-06T18:04:28.971Z,17.80
2023-05-06T18:06:57.038Z,17.70
2023-05-06T18:09:24.918Z,17.70
2023-05-06T18:11:55.070Z,17.50
2023-05-06T18:14:22.905Z,17.40
2023-05-06T18:16:50.837Z,17.20
2023-05-06T18:19:18.591Z,17.00
2023-05-06T18:21:46.633Z,16.90
2023-05-06T18:24:16.638Z,16.60
2023-05-06T18:26:46.064Z,16.50
2023-05-06T18:29:16.063Z,16.50
2023-05-06T18:31:44.010Z,16.30
2023-05-06T18:34:11.903Z,16.20
2023-05-06T18:36:39.848Z,16.00
2023-05-06T18:39:08.065Z,15.90
2023-05-06T18:41:35.925Z,15.70
2023-05-06T18:44:04.389Z,15.60
2023-05-06T18:46:33.595Z,15.60
2023-05-06T18:49:01.804Z,15.50
2023-05-06T18:51:29.604Z,15.40
2023-05-06T18:53:57.381Z,15.30
2023-05-06T18:56:25.241Z,15.20
2023-05-06T18:58:53.122Z,15.10
2023-05-06T19:01:20.958Z,15.10
2023-05-06T19:03:50.378Z,14.90
2023-05-06T19:06:18.554Z,14.90
2023-05-06T19:08:46.752Z,14.80
2023-05-06T19:11:16.382Z,14.90
2023-05-06T19:13:44.892Z,14.70
2023-05-06T19:16:12.792Z,14.70
2023-05-06T19:18:40.628Z,14.70
2023-05-06T19:21:11.556Z,14.70
2023-05-06T19:23:39.365Z,14.60
2023-05-06T19:26:07.590Z,14.60
2023-05-06T19:28:35.680Z,14.50
2023-05-06T19:31:09.184Z,14.50
2023-05-06T19:33:37.156Z,14.50
2023-05-06T19:36:05.933Z,14.40
2023-05-06T19:38:35.216Z,14.40
2023-05-06T19:41:03.226Z,14.30
2023-05-06T19:43:31.554Z,14.40
2023-05-06T19:45:59.515Z,14.30
2023-05-06T19:48:27.375Z,14.30
2023-05-06T19:50:55.180Z,14.30
2023-05-06T19:53:23.874Z,14.20
2023-05-06T19:55:55.824Z,14.10
2023-05-06T19:58:23.623Z,14.10
2023-05-06T20:00:51.414Z,14.10
2023-05-06T20:03:19.231Z,14.10
2023-05-06T20:05:47.078Z,14.20
2023-05-06T20:08:14.856Z,14.10
2023-05-06T20:10:42.679Z,14.10
2023-05-06T20:13:12.360Z,14.10
2023-05-06T20:15:41.433Z,14.00
2023-05-06T20:18:09.501Z,14.10
2023-05-06T20:20:37.784Z,14.10
2023-05-06T20:23:05.666Z,14.10
2023-05-06T20:25:33.883Z,14.10
2023-05-06T20:28:03.189Z,14.20
2023-05-06T20:30:32.347Z,14.20
2023-05-06T20:33:00.432Z,14.10
2023-05-06T20:35:28.383Z,14.00
2023-05-06T20:37:56.399Z,14.10
2023-05-06T20:40:24.585Z,14.00
2023-05-06T20:42:52.354Z,14.00
2023-05-06T20:45:20.308Z,13.90
2023-05-06T20:47:49.640Z,13.80
2023-05-06T20:50:18.601Z,13.80
2023-05-06T20:52:47.251Z,13.70
2023-05-06T20:55:15.759Z,13.70
2023-05-06T20:57:44.220Z,13.70
2023-05-06T21:00:12.944Z,13.60
2023-05-06T21:02:41.935Z,13.50
2023-05-06T21:05:11.896Z,13.50
2023-05-06T21:07:40.091Z,13.50
2023-05-06T21:10:08.375Z,13.50
2023-05-06T21:12:36.194Z,13.50
2023-05-06T21:15:04.220Z,13.50
2023-05-06T21:17:32.397Z,13.40
2023-05-06T21:20:00.217Z,13.40
2023-05-06T21:22:29.277Z,13.30
2023-05-06T21:24:57.064Z,13.30
2023-05-06T21:27:24.921Z,13.30
2023-05-06T21:29:52.782Z,13.30
2023-05-06T21:32:20.577Z,13.20
2023-05-06T21:34:48.395Z,13.20
2023-05-06T21:37:16.175Z,13.20
2023-05-06T21:39:45.805Z,13.10
2023-05-06T21:42:13.557Z,13.20
2023-05-06T21:44:41.308Z,13.20
2023-05-06T21:47:09.111Z,13.20
2023-05-06T21:49:36.872Z,13.10
2023-05-06T21:52:06.195Z,13.10
2023-05-06T21:54:34.026Z,13.10
2023-05-06T21:57:07.676Z,13.10
2023-05-06T21:59:36.090Z,13.00
2023-05-06T22:02:04.205Z,13.00
2023-05-06T22:04:32.103Z,13.00
2023-05-06T22:07:00.008Z,13.00
2023-05-06T22:09:28.212Z,13.00
2023-05-06T22:11:55.980Z,13.10
2023-05-06T22:14:30.298Z,13.10
2023-05-06T22:17:06.774Z,13.10
2023-05-06T22:19:34.609Z,13.00
2023-05-06T22:22:02.753Z,12.90
2023-05-06T22:24:30.525Z,12.80
2023-05-06T22:26:58.367Z,12.80
2023-05-06T22:29:27.519Z,12.80
2023-05-06T22:31:55.302Z,12.80
2023-05-06T22:34:23.221Z,12.80
2023-05-06T22:36:50.960Z,12.80
2023-05-06T22:39:18.767Z,12.80
2023-05-06T22:41:48.384Z,12.70
2023-05-06T22:44:16.170Z,12.60
2023-05-06T22:46:45.434Z,12.60
2023-05-06T22:49:14.369Z,12.60
2023-05-06T22:51:42.719Z,12.60
2023-05-06T22:54:10.546Z,12.70
2023-05-06T22:56:38.613Z,12.60
2023-05-06T22:59:07.060Z,12.60
2023-05-06T23:01:34.885Z,12.50
2023-05-06T23:04:04.235Z,12.50
2023-05-06T23:06:32.081Z,12.50
2023-05-06T23:08:59.965Z,12.50
2023-05-06T23:11:27.795Z,12.40
2023-05-06T23:13:55.592Z,12.30
2023-05-06T23:16:23.444Z,12.40
2023-05-06T23:18:51.317Z,12.30
2023-05-06T23:21:20.454Z,12.30
2023-05-06T23:23:48.230Z,12.30
2023-05-06T23:26:16.065Z,12.30
2023-05-06T23:28:43.837Z,12.40
2023-05-06T23:31:11.677Z,12.40
2023-05-06T23:33:39.510Z,12.40
2023-05-06T23:36:07.987Z,12.50
2023-05-06T23:38:37.097Z,12.50
2023-05-06T23:41:05.237Z,12.40
2023-05-06T23:43:33.030Z,12.40
2023-05-06T23:46:00.840Z,12.40
2023-05-06T23:48:28.681Z,12.50
2023-05-06T23:50:56.470Z,12.50
2023-05-06T23:53:24.224Z,12.40
2023-05-06T23:55:53.356Z,12.30
2023-05-06T23:58:21.160Z,12.30
